createdAt,value
2018-02-27T00:00:04.937Z,-5.4
2018-02-27T00:15:04.726Z,-5.2
2018-02-27T00:30:05.178Z,-5.3
2018-02-27T00:45:05.125Z,-5.1
2018-02-27T01:00:05.171Z,-5.3
2018-02-27T01:15:07.754Z,-5.5
2018-02-27T01:30:06.002Z,-5.4
2018-02-27T01:45:04.538Z,-5.7
2018-02-27T02:00:07.566Z,-5.6
2018-02-27T02:15:05.000Z,-5.5
2018-02-27T02:30:05.128Z,-5.5
2018-02-27T02:45:04.654Z,-5.4
2018-02-27T03:00:04.624Z,-5.5
2018-02-27T03:15:04.572Z,-5.4
2018-02-27T03:30:04.682Z,-5.3
2018-02-27T03:45:08.290Z,-5.3
2018-02-27T04:00:07.914Z,-5.4
2018-02-27T04:15:04.299Z,-5.4
2018-02-27T04:30:04.921Z,-5.4
2018-02-27T04:45:05.927Z,-5.3
2018-02-27T05:00:15.275Z,-5.5
2018-02-27T05:15:08.009Z,-5.6
2018-02-27T05:30:07.611Z,-5.5
2018-02-27T05:45:05.046Z,-5.2
2018-02-27T06:00:04.976Z,-5.2
2018-02-27T06:15:04.485Z,-5.4
2018-02-27T06:30:04.853Z,-5.4
2018-02-27T06:45:04.653Z,-5.4
2018-02-27T07:00:05.187Z,-5.4
2018-02-27T07:15:05.152Z,-5.5
2018-02-27T07:30:04.838Z,-5.1
2018-02-27T07:45:04.277Z,-4.8
2018-02-27T08:00:04.754Z,-4.3
2018-02-27T08:15:05.194Z,-3.5
2018-02-27T08:30:04.860Z,-3.2
2018-02-27T08:45:04.750Z,-1.3
2018-02-27T09:00:05.124Z,-1.8
2018-02-27T09:15:04.474Z,-2.4
2018-02-27T09:30:05.169Z,-3
2018-02-27T09:45:04.645Z,-2.9
2018-02-27T10:00:05.017Z,-2.7
2018-02-27T10:15:04.971Z,-2.5
2018-02-27T10:30:08.244Z,-1.9
2018-02-27T10:45:08.198Z,-2.2
2018-02-27T11:00:05.619Z,-2.1
2018-02-27T11:15:05.168Z,-2.1
2018-02-27T11:30:04.266Z,-2.2
2018-02-27T11:45:04.742Z,-2.2
2018-02-27T12:00:04.368Z,-2.2
2018-02-27T12:15:05.852Z,-2.3
2018-02-27T12:30:04.603Z,-2.2
2018-02-27T12:45:05.126Z,-1.9
2018-02-27T13:00:05.121Z,-1.9
2018-02-27T13:15:05.083Z,-1.7
2018-02-27T13:30:04.880Z,-2.2
2018-02-27T13:45:04.287Z,-2.4
2018-02-27T14:00:04.313Z,-2
2018-02-27T14:15:04.268Z,-2
2018-02-27T14:30:05.967Z,-1.8
2018-02-27T14:45:04.434Z,-2
2018-02-27T15:00:04.425Z,-2
2018-02-27T15:15:05.912Z,-2.2
2018-02-27T15:30:04.664Z,-2.1
2018-02-27T15:45:04.682Z,-2.1
2018-02-27T16:00:04.739Z,-2.3
2018-02-27T16:15:04.311Z,-2.3
2018-02-27T16:30:04.552Z,-2.8
2018-02-27T16:45:05.022Z,-2.8
2018-02-27T17:00:04.480Z,-2.9
2018-02-27T17:15:05.028Z,-3.1
2018-02-27T17:30:20.563Z,-3.1
2018-02-27T17:45:06.326Z,-3.2
2018-02-27T18:00:07.985Z,-3.2
2018-02-27T18:15:04.977Z,-3.1
2018-02-27T18:30:05.384Z,-3.3
2018-02-27T18:45:05.201Z,-3.2
2018-02-27T19:00:04.637Z,-3.4
2018-02-27T19:15:06.251Z,-3.6
2018-02-27T19:30:04.831Z,-3.4
2018-02-27T19:45:07.801Z,-3.4
2018-02-27T20:00:04.407Z,-3.5
2018-02-27T20:15:07.590Z,-3.3
2018-02-27T20:30:05.207Z,-3.5
2018-02-27T20:45:08.087Z,-3.4
2018-02-27T21:00:07.686Z,-3.5
2018-02-27T21:15:06.244Z,-3.6
2018-02-27T21:30:40.542Z,-3.9
2018-02-27T21:45:04.878Z,-3.8
2018-02-27T22:00:04.554Z,-4.2
2018-02-27T22:15:05.242Z,-4.2
2018-02-27T22:30:04.413Z,-4.3
2018-02-27T22:45:05.562Z,-4.4
2018-02-27T23:00:04.869Z,-4.4
2018-02-27T23:15:04.454Z,-4.5
2018-02-27T23:30:05.159Z,-4.6
2018-02-27T23:45:05.180Z,-4.6
